Time;durP1;ratioP1;P1;durP2;ratioP2;P2;SDS_P1;SDS_P2;PMS_P1;PMS_P2;Temp;Humidity;BMP_temperature;BMP_pressure;BME280_temperature;BME280_humidity;BME280_pressure;Samples;Min_cycle;Max_cycle;Signal;HPM_P1;HPM_P2
2022/08/16 00:00:44;;;;;;;13.38;10.73;;;21.50;99.90;;;;;;3057969;19;20010;-71
2022/08/16 00:01:48;;;;;;;14.40;11.18;;;21.70;99.90;;;;;;3057724;19;20014;-71
2022/08/16 00:02:52;;;;;;;14.43;11.07;;;21.70;99.90;;;;;;3057996;19;20037;-71
2022/08/16 00:03:56;;;;;;;14.43;10.80;;;21.70;99.90;;;;;;3057889;19;20014;-71
2022/08/16 00:04:57;;;;;;;14.27;11.63;;;21.60;99.90;;;;;;3057810;19;20011;-71
2022/08/16 00:06:01;;;;;;;16.33;12.15;;;21.50;99.90;;;;;;3057863;19;20368;-71
2022/08/16 00:07:03;;;;;;;15.48;11.77;;;21.70;99.90;;;;;;3057777;19;20010;-71
2022/08/16 00:08:09;;;;;;;15.95;11.68;;;21.70;99.90;;;;;;3057390;19;20012;-71
2022/08/16 00:09:11;;;;;;;17.88;12.30;;;21.70;99.90;;;;;;3057755;19;20015;-71
2022/08/16 00:10:18;;;;;;;14.90;12.20;;;21.80;99.90;;;;;;3057722;19;20014;-71
2022/08/16 00:11:20;;;;;;;14.90;11.73;;;21.60;99.90;;;;;;3057561;19;20476;-71
2022/08/16 00:12:24;;;;;;;15.05;12.02;;;21.50;99.90;;;;;;3057793;19;19999;-71
2022/08/16 00:13:25;;;;;;;14.27;11.70;;;21.60;99.90;;;;;;3056902;19;20023;-71
2022/08/16 00:14:31;;;;;;;;;;;21.70;99.90;;;;;;3058494;19;20015;-71
2022/08/16 00:15:38;;;;;;;17.25;12.07;;;21.60;99.90;;;;;;3057779;19;19914;-71
2022/08/16 00:16:42;;;;;;;16.10;12.10;;;21.60;99.90;;;;;;3057749;19;20014;-71
2022/08/16 00:17:43;;;;;;;13.38;11.38;;;21.50;99.90;;;;;;3057999;19;20010;-71
2022/08/16 00:18:47;;;;;;;16.83;12.50;;;21.70;99.90;;;;;;3058047;19;19999;-71
2022/08/16 00:19:48;;;;;;;14.57;12.43;;;21.70;99.90;;;;;;3057576;19;20360;-71
2022/08/16 00:20:52;;;;;;;16.50;12.98;;;21.60;99.90;;;;;;3057863;19;20015;-71
2022/08/16 00:21:55;;;;;;;15.90;12.98;;;21.50;99.90;;;;;;3057509;19;20007;-71
2022/08/16 00:22:59;;;;;;;15.57;13.02;;;21.70;99.90;;;;;;3057877;19;20022;-71
2022/08/16 00:24:00;;;;;;;18.00;13.23;;;21.50;99.90;;;;;;3057465;19;20023;-71
2022/08/16 00:25:11;;;;;;;15.18;13.27;;;21.50;99.90;;;;;;3057050;19;20480;-71
2022/08/16 00:26:15;;;;;;;19.08;13.15;;;21.60;99.90;;;;;;3057324;19;20061;-71
2022/08/16 00:27:19;;;;;;;18.58;13.15;;;21.60;99.90;;;;;;3057867;19;20046;-71
2022/08/16 00:28:20;;;;;;;15.25;12.27;;;21.40;99.90;;;;;;3056769;19;20039;-71
2022/08/16 00:29:24;;;;;;;17.50;13.25;;;21.50;99.90;;;;;;3057939;19;20074;-71
2022/08/16 00:30:26;;;;;;;16.13;13.00;;;21.50;99.90;;;;;;3058460;19;20018;-71
2022/08/16 00:31:31;;;;;;;;;;;21.60;99.90;;;;;;3061583;19;20035;-71
2022/08/16 00:32:32;;;;;;;16.58;12.57;;;21.30;99.90;;;;;;3060701;19;19943;-71
2022/08/16 00:33:36;;;;;;;18.02;13.23;;;21.50;99.90;;;;;;3060889;19;20066;-71
2022/08/16 00:34:38;;;;;;;16.90;13.48;;;21.30;99.90;;;;;;3060586;19;20031;-71
2022/08/16 00:35:42;;;;;;;15.93;12.98;;;21.40;99.90;;;;;;3060975;19;20007;-71
2022/08/16 00:36:45;;;;;;;15.50;12.38;;;21.30;99.90;;;;;;3060418;19;20488;-71
2022/08/16 00:37:49;;;;;;;19.73;13.57;;;21.30;99.90;;;;;;3060850;19;20014;-71
2022/08/16 00:38:52;;;;;;;17.65;12.95;;;21.30;99.90;;;;;;3060433;19;20011;-71
2022/08/16 00:40:00;;;;;;;17.42;13.40;;;21.40;99.90;;;;;;3060507;19;20021;-71
2022/08/16 00:41:01;;;;;;;17.30;13.55;;;21.40;99.90;;;;;;3060673;19;20007;-71
2022/08/16 00:42:08;;;;;;;;;;;21.50;99.90;;;;;;3061380;19;20006;-71
2022/08/16 00:43:16;;;;;;;17.85;13.60;;;21.20;99.90;;;;;;3060514;19;20329;-71
2022/08/16 00:44:19;;;;;;;16.33;13.20;;;21.50;99.90;;;;;;3060473;19;20014;-71
2022/08/16 00:49:14;;;;;;;17.95;14.20;;;21.20;99.90;;;;;;3058361;19;20006;-71
2022/08/16 00:50:15;;;;;;;;;;;21.20;99.90;;;;;;3058954;19;20025;-71
2022/08/16 00:52:52;;;;;;;18.67;13.65;;;21.20;99.90;;;;;;3058805;19;20266;-71
2022/08/16 00:53:54;;;;;;;18.20;13.45;;;21.20;99.90;;;;;;3061314;19;20011;-72
2022/08/16 00:54:58;;;;;;;17.08;13.80;;;21.20;99.90;;;;;;3062247;19;20024;-71
2022/08/16 00:56:05;;;;;;;18.20;14.32;;;21.30;99.90;;;;;;3060407;19;20006;-71
2022/08/16 00:57:12;;;;;;;17.83;13.73;;;21.30;99.90;;;;;;3060396;19;20015;-71
2022/08/16 00:58:15;;;;;;;18.55;14.45;;;21.10;99.90;;;;;;3061361;19;20035;-71
2022/08/16 00:59:21;;;;;;;20.00;14.38;;;21.20;99.90;;;;;;3060284;19;20058;-71
2022/08/16 01:00:26;;;;;;;17.27;14.48;;;21.20;99.90;;;;;;3060418;19;20031;-71
2022/08/16 01:01:31;;;;;;;18.98;14.32;;;21.30;99.90;;;;;;3060237;19;20404;-71
2022/08/16 01:02:33;;;;;;;16.92;13.77;;;21.20;99.90;;;;;;3060479;19;20026;-71
2022/08/16 01:03:40;;;;;;;17.80;14.13;;;21.20;99.90;;;;;;3060086;19;20014;-71
2022/08/16 01:04:42;;;;;;;16.95;14.13;;;21.30;99.90;;;;;;3060444;19;20091;-71
2022/08/16 01:05:47;;;;;;;17.60;14.20;;;21.20;99.90;;;;;;3060126;19;20011;-71
2022/08/16 01:06:49;;;;;;;19.25;14.07;;;21.40;99.90;;;;;;3060337;19;20018;-71
2022/08/16 01:07:56;;;;;;;17.42;14.55;;;21.20;99.90;;;;;;3059909;19;20430;-71
2022/08/16 01:08:58;;;;;;;16.73;13.73;;;21.40;99.90;;;;;;3060330;19;20019;-71
2022/08/16 01:10:06;;;;;;;17.30;14.05;;;21.10;99.90;;;;;;3060474;19;20018;-71
2022/08/16 01:11:08;;;;;;;17.52;13.73;;;21.30;99.90;;;;;;3060231;19;20078;-71
2022/08/16 01:12:15;;;;;;;16.58;14.40;;;21.20;99.90;;;;;;3060171;19;20018;-71
2022/08/16 01:13:20;;;;;;;16.23;13.60;;;21.10;99.90;;;;;;3059597;19;20082;-71
2022/08/16 01:14:27;;;;;;;19.88;14.63;;;21.20;99.90;;;;;;3060150;19;20011;-71
2022/08/16 01:15:28;;;;;;;17.95;14.63;;;21.20;99.90;;;;;;3060089;19;20003;-71
2022/08/16 01:16:33;;;;;;;16.75;13.52;;;21.30;99.90;;;;;;3059965;19;20014;-71
2022/08/16 01:17:35;;;;;;;18.17;15.32;;;21.10;99.90;;;;;;3060163;19;20075;-71
2022/08/16 01:18:41;;;;;;;;;;;21.10;99.90;;;;;;3060337;19;20014;-71
2022/08/16 01:19:47;;;;;;;18.02;14.45;;;21.10;99.90;;;;;;3060213;19;19921;-71
2022/08/16 01:20:59;;;;;;;18.00;15.27;;;21.60;99.90;;;;;;3060325;19;20352;-71
2022/08/16 01:22:04;;;;;;;18.77;14.93;;;21.00;99.90;;;;;;3060306;19;20017;-72
2022/08/16 01:23:15;;;;;;;22.05;15.30;;;21.00;99.90;;;;;;3060219;19;20006;-71
2022/08/16 01:24:27;;;;;;;24.33;15.45;;;21.30;99.90;;;;;;3059803;19;20636;-71
2022/08/16 01:25:36;;;;;;;19.95;15.27;;;21.00;99.90;;;;;;3060222;19;20492;-71
2022/08/16 01:26:39;;;;;;;20.35;16.20;;;21.10;99.90;;;;;;3059707;19;20017;-71
2022/08/16 01:27:47;;;;;;;21.30;15.05;;;20.90;99.90;;;;;;3060165;19;19999;-71
2022/08/16 01:28:48;;;;;;;20.63;15.30;;;21.20;99.90;;;;;;3058968;19;20369;-71
2022/08/16 01:29:58;;;;;;;19.05;14.98;;;21.20;99.90;;;;;;3059983;19;20078;-71
2022/08/16 01:31:01;;;;;;;19.92;15.82;;;21.10;99.90;;;;;;3060027;19;20066;-71
2022/08/16 01:32:13;;;;;;;19.95;15.50;;;21.00;99.90;;;;;;3059922;19;20018;-71
2022/08/16 01:33:15;;;;;;;20.15;16.15;;;21.10;99.90;;;;;;3059813;19;20023;-71
2022/08/16 01:34:20;;;;;;;22.02;15.63;;;21.10;99.90;;;;;;3059778;19;20027;-71
2022/08/16 01:35:27;;;;;;;21.63;15.75;;;21.20;99.90;;;;;;3059814;19;20017;-71
2022/08/16 01:36:32;;;;;;;17.77;14.27;;;21.10;99.90;;;;;;3059969;19;20002;-71
2022/08/16 01:37:44;;;;;;;19.00;15.02;;;20.90;99.90;;;;;;3059714;19;20097;-71
2022/08/16 01:38:50;;;;;;;20.73;16.48;;;21.10;99.90;;;;;;3059619;19;20010;-71
2022/08/16 01:39:54;;;;;;;21.20;16.42;;;21.10;99.90;;;;;;3059856;19;20505;-71
2022/08/16 01:41:01;;;;;;;22.33;16.25;;;21.00;99.90;;;;;;3059634;19;20007;-71
2022/08/16 01:42:06;;;;;;;21.20;16.35;;;21.10;99.90;;;;;;3058380;19;20010;-71
2022/08/16 01:43:10;;;;;;;21.88;16.27;;;21.10;99.90;;;;;;3059518;19;20035;-71
2022/08/16 01:44:11;;;;;;;20.45;16.30;;;21.30;99.90;;;;;;3060006;19;20018;-71
2022/08/16 01:45:16;;;;;;;20.52;16.40;;;20.90;99.90;;;;;;3059842;19;20086;-71
2022/08/16 01:46:22;;;;;;;19.52;15.90;;;21.00;99.90;;;;;;3060933;19;20019;-71
2022/08/16 01:47:26;;;;;;;22.30;17.88;;;21.00;99.90;;;;;;3059573;19;20006;-71
2022/08/16 01:48:30;;;;;;;25.02;17.83;;;21.00;99.90;;;;;;3058786;19;20369;-71
2022/08/16 01:49:37;;;;;;;21.10;17.17;;;21.00;99.90;;;;;;3059405;19;20697;-72
2022/08/16 01:50:43;;;;;;;22.20;16.65;;;21.10;99.90;;;;;;3059822;19;20038;-70
2022/08/16 01:51:50;;;;;;;21.77;17.17;;;20.80;99.90;;;;;;3059441;19;20484;-71
2022/08/16 01:52:51;;;;;;;23.40;17.48;;;21.10;99.90;;;;;;3059803;19;20070;-71
2022/08/16 01:53:55;;;;;;;22.52;17.90;;;20.90;99.90;;;;;;3059439;19;20040;-71
2022/08/16 01:55:01;;;;;;;21.88;17.85;;;21.00;99.90;;;;;;3059669;19;20007;-71
2022/08/16 01:56:05;;;;;;;23.00;17.50;;;21.00;99.90;;;;;;3059438;19;20014;-71
2022/08/16 01:57:07;;;;;;;23.13;18.42;;;21.00;99.90;;;;;;3059653;19;20396;-71
2022/08/16 01:58:11;;;;;;;;;;;20.90;99.90;;;;;;3060156;19;20363;-71
2022/08/16 01:59:13;;;;;;;24.60;18.13;;;20.90;99.90;;;;;;3059625;19;20388;-71
2022/08/16 02:00:18;;;;;;;21.77;17.77;;;20.90;99.90;;;;;;3059268;19;20472;-71
2022/08/16 02:01:19;;;;;;;24.13;19.05;;;21.00;99.90;;;;;;3059670;19;20003;-71
2022/08/16 02:02:25;;;;;;;23.55;17.50;;;20.80;99.90;;;;;;3058692;19;20030;-71
2022/08/16 02:03:26;;;;;;;25.55;18.70;;;20.80;99.90;;;;;;3058839;19;20358;-71
2022/08/16 02:04:32;;;;;;;23.77;18.08;;;21.10;99.90;;;;;;3059465;19;20107;-71
2022/08/16 02:05:33;;;;;;;26.02;18.90;;;21.00;99.90;;;;;;3059417;19;20076;-71
2022/08/16 02:06:37;;;;;;;23.25;18.73;;;20.70;99.90;;;;;;3059388;19;20017;-71
2022/08/16 02:07:39;;;;;;;23.80;18.95;;;20.80;99.90;;;;;;3059362;19;20082;-71
2022/08/16 02:08:44;;;;;;;24.35;19.73;;;20.70;99.90;;;;;;3059014;19;20086;-71
2022/08/16 02:09:46;;;;;;;23.08;18.83;;;21.00;99.90;;;;;;3059572;19;20010;-71
2022/08/16 02:10:53;;;;;;;24.10;19.73;;;20.90;99.90;;;;;;3059317;19;20031;-71
2022/08/16 02:11:57;;;;;;;27.10;19.20;;;20.80;99.90;;;;;;3059500;19;20010;-71
2022/08/16 02:13:01;;;;;;;23.88;18.33;;;20.90;99.90;;;;;;3058762;19;20044;-71
2022/08/16 02:14:03;;;;;;;24.30;19.05;;;20.90;99.90;;;;;;3059439;19;20017;-71
2022/08/16 02:15:09;;;;;;;25.02;18.98;;;20.80;99.90;;;;;;3059290;19;20023;-71
2022/08/16 02:16:10;;;;;;;25.75;19.23;;;20.70;99.90;;;;;;3059337;19;20002;-71
2022/08/16 02:17:15;;;;;;;23.67;18.92;;;20.80;99.90;;;;;;3059491;19;20465;-71
2022/08/16 02:18:16;;;;;;;25.90;18.45;;;20.90;99.90;;;;;;3059157;19;20018;-71
2022/08/16 02:19:21;;;;;;;23.85;18.55;;;20.80;99.90;;;;;;3059059;19;20003;-71
2022/08/16 02:20:24;;;;;;;23.25;17.73;;;20.80;99.90;;;;;;3059130;19;19998;-71
2022/08/16 02:21:29;;;;;;;21.67;17.80;;;20.80;99.90;;;;;;3059353;19;20010;-71
2022/08/16 02:22:30;;;;;;;28.08;19.42;;;20.80;99.90;;;;;;3059055;19;20465;-71
2022/08/16 02:23:35;;;;;;;25.08;19.17;;;20.80;99.90;;;;;;3059314;19;20041;-71
2022/08/16 02:24:37;;;;;;;25.33;18.33;;;20.80;99.90;;;;;;3058928;19;20475;-71
2022/08/16 02:25:41;;;;;;;24.75;18.85;;;20.70;99.90;;;;;;3059132;19;20002;-70
2022/08/16 02:26:45;;;;;;;24.70;18.98;;;20.70;99.90;;;;;;3059141;19;20002;-71
2022/08/16 02:27:49;;;;;;;25.48;20.17;;;20.80;99.90;;;;;;3059319;19;20484;-71
2022/08/16 02:28:50;;;;;;;26.73;19.50;;;20.60;99.90;;;;;;3058523;19;20390;-71
2022/08/16 02:29:54;;;;;;;23.98;18.83;;;20.80;99.90;;;;;;3059084;19;20006;-71
2022/08/16 02:30:58;;;;;;;24.83;18.73;;;20.80;99.90;;;;;;3059159;19;20019;-71
2022/08/16 02:32:02;;;;;;;24.52;18.98;;;20.80;99.90;;;;;;3059212;19;20077;-71
2022/08/16 02:33:04;;;;;;;26.65;19.67;;;20.50;99.90;;;;;;3059120;19;20006;-71
2022/08/16 02:34:08;;;;;;;22.55;18.05;;;20.60;99.90;;;;;;3059199;19;20007;-71
2022/08/16 02:35:11;;;;;;;25.70;19.83;;;20.60;99.90;;;;;;3059070;19;20109;-71
2022/08/16 02:36:16;;;;;;;23.98;18.48;;;20.60;99.90;;;;;;3059187;19;20013;-71
2022/08/16 02:37:17;;;;;;;24.73;19.02;;;20.70;99.90;;;;;;3058198;19;20035;-71
2022/08/16 02:38:21;;;;;;;25.63;18.52;;;20.60;99.90;;;;;;3058460;19;20101;-71
2022/08/16 02:39:23;;;;;;;25.98;19.45;;;20.50;99.90;;;;;;3059033;19;20021;-71
2022/08/16 02:40:27;;;;;;;26.55;19.05;;;20.50;99.90;;;;;;3058897;19;20357;-71
2022/08/16 02:41:29;;;;;;;25.05;19.73;;;20.60;99.90;;;;;;3058851;19;20101;-71
2022/08/16 02:42:36;;;;;;;27.05;19.60;;;20.60;99.90;;;;;;3059089;19;20482;-71
2022/08/16 02:43:38;;;;;;;26.33;19.83;;;20.50;99.90;;;;;;3058975;19;20058;-71
2022/08/16 02:44:42;;;;;;;;;;;20.50;99.90;;;;;;3060054;19;20014;-71
2022/08/16 02:45:43;;;;;;;24.40;18.33;;;20.50;99.90;;;;;;3058667;19;19918;-71
2022/08/16 02:46:48;;;;;;;26.60;19.70;;;20.40;99.90;;;;;;3058845;19;20010;-71
2022/08/16 02:47:49;;;;;;;25.38;19.20;;;20.40;99.90;;;;;;3058826;19;20011;-71
2022/08/16 02:48:53;;;;;;;25.08;20.00;;;20.40;99.90;;;;;;3058230;19;20006;-71
2022/08/16 02:49:54;;;;;;;25.15;19.50;;;20.50;99.90;;;;;;3058704;19;20014;-71
2022/08/16 02:50:59;;;;;;;26.05;19.58;;;20.60;99.90;;;;;;3059121;19;20006;-71
2022/08/16 02:52:01;;;;;;;26.58;19.88;;;20.40;99.90;;;;;;3058680;19;20025;-71
2022/08/16 02:53:05;;;;;;;30.65;20.38;;;20.40;99.90;;;;;;3058908;19;20020;-71
2022/08/16 02:54:07;;;;;;;25.83;19.80;;;20.40;99.90;;;;;;3058763;19;20488;-71
2022/08/16 02:55:12;;;;;;;28.88;21.58;;;20.30;99.90;;;;;;3059045;19;20010;-71
2022/08/16 02:56:15;;;;;;;28.23;21.83;;;20.30;99.90;;;;;;3058593;19;20014;-71
2022/08/16 02:57:18;;;;;;;28.98;22.25;;;20.40;99.90;;;;;;3058890;19;20036;-71
2022/08/16 02:58:22;;;;;;;30.08;21.70;;;20.20;99.90;;;;;;3058621;19;20089;-71
2022/08/16 02:59:26;;;;;;;32.20;22.85;;;20.30;99.90;;;;;;3058792;19;20364;-71
2022/08/16 03:00:28;;;;;;;29.30;22.08;;;20.40;99.90;;;;;;3058460;19;20020;-71
2022/08/16 03:01:34;;;;;;;31.30;22.35;;;20.30;99.90;;;;;;3058917;19;20003;-71
2022/08/16 03:02:36;;;;;;;29.92;20.88;;;20.20;99.90;;;;;;3058531;19;20014;-71
2022/08/16 03:03:39;;;;;;;;;;;20.30;99.90;;;;;;3059559;19;20002;-71
2022/08/16 03:04:41;;;;;;;28.83;20.98;;;20.10;99.90;;;;;;3058518;19;19926;-71
2022/08/16 03:05:46;;;;;;;27.75;21.67;;;20.30;99.90;;;;;;3058735;19;20013;-71
2022/08/16 03:06:48;;;;;;;31.33;22.90;;;20.00;99.90;;;;;;3058663;19;20692;-71
2022/08/16 03:07:54;;;;;;;31.17;22.42;;;20.30;99.90;;;;;;3058762;19;20011;-71
2022/08/16 03:08:55;;;;;;;32.20;23.08;;;20.20;99.90;;;;;;3058522;19;20024;-71
2022/08/16 03:09:59;;;;;;;31.52;22.55;;;20.30;99.90;;;;;;3058692;19;20002;-71
2022/08/16 03:11:01;;;;;;;29.40;21.98;;;20.10;99.90;;;;;;3058293;19;20010;-71
2022/08/16 03:12:06;;;;;;;29.50;22.80;;;20.20;99.90;;;;;;3058862;19;20018;-71
2022/08/16 03:13:08;;;;;;;29.70;22.45;;;20.20;99.90;;;;;;3058014;19;20039;-71
2022/08/16 03:14:15;;;;;;;33.83;23.33;;;20.20;99.90;;;;;;3058499;19;20498;-71
2022/08/16 03:15:17;;;;;;;31.80;22.77;;;20.20;99.90;;;;;;3058437;19;20486;-71
2022/08/16 03:16:22;;;;;;;31.77;22.88;;;20.00;99.90;;;;;;3058721;19;20006;-71
2022/08/16 03:17:24;;;;;;;32.17;23.40;;;20.20;99.90;;;;;;3058370;19;20014;-71
2022/08/16 03:18:28;;;;;;;28.30;21.85;;;20.20;99.90;;;;;;3058134;19;20014;-71
2022/08/16 03:19:32;;;;;;;32.17;23.40;;;20.20;99.90;;;;;;3058379;19;20011;-71
2022/08/16 03:20:37;;;;;;;36.35;25.52;;;20.10;99.90;;;;;;3058580;19;20002;-71
2022/08/16 03:21:38;;;;;;;33.63;24.90;;;20.20;99.90;;;;;;3058371;19;20353;-71
2022/08/16 03:22:42;;;;;;;34.15;24.42;;;20.20;99.90;;;;;;3058576;19;20007;-71
2022/08/16 03:23:43;;;;;;;34.95;24.95;;;20.30;99.90;;;;;;3058580;19;20018;-71
2022/08/16 03:24:47;;;;;;;31.48;23.55;;;20.30;99.90;;;;;;3058246;19;20006;-71
2022/08/16 03:25:55;;;;;;;35.88;24.80;;;20.20;99.90;;;;;;3058300;19;20094;-71
2022/08/16 03:27:01;;;;;;;31.00;24.15;;;20.10;99.90;;;;;;3058486;19;20547;-71
2022/08/16 03:28:03;;;;;;;33.55;25.75;;;20.20;99.90;;;;;;3058368;19;20007;-71
2022/08/16 03:29:07;;;;;;;38.45;25.60;;;20.20;99.90;;;;;;3058035;19;20010;-71
2022/08/16 03:30:14;;;;;;;33.28;25.25;;;20.20;99.90;;;;;;3058281;19;20007;-71
2022/08/16 03:31:18;;;;;;;34.28;25.65;;;20.20;99.90;;;;;;3058304;19;20010;-71
2022/08/16 03:32:19;;;;;;;32.97;25.65;;;20.20;99.90;;;;;;3058413;19;19998;-71
2022/08/16 03:33:23;;;;;;;35.70;26.88;;;20.20;99.90;;;;;;3058071;19;19994;-71
2022/08/16 03:34:25;;;;;;;33.92;26.10;;;20.10;99.90;;;;;;3058405;19;19999;-71
2022/08/16 03:35:30;;;;;;;;;;;20.00;99.90;;;;;;3058944;19;20014;-71
2022/08/16 03:36:34;;;;;;;36.17;26.20;;;20.10;99.90;;;;;;3058137;19;19927;-71
2022/08/16 03:37:36;;;;;;;34.22;26.83;;;20.00;99.90;;;;;;3058256;19;20015;-71
2022/08/16 03:38:40;;;;;;;;;;;20.00;99.90;;;;;;3059114;19;20031;-71
2022/08/16 03:39:41;;;;;;;36.45;27.77;;;20.00;99.90;;;;;;3058310;19;19943;-71
2022/08/16 03:40:45;;;;;;;39.40;29.55;;;19.90;99.90;;;;;;3058120;19;20362;-71
2022/08/16 03:41:48;;;;;;;36.95;27.80;;;19.80;99.90;;;;;;3058212;19;20374;-71
2022/08/16 03:42:51;;;;;;;38.25;28.42;;;20.00;99.90;;;;;;3058163;19;20007;-71
2022/08/16 03:43:53;;;;;;;39.45;28.67;;;19.90;99.90;;;;;;3059783;19;20014;-71
2022/08/16 03:44:57;;;;;;;39.40;28.38;;;19.80;99.90;;;;;;3058175;19;20077;-71
2022/08/16 03:46:02;;;;;;;38.55;29.23;;;19.70;99.90;;;;;;3058161;19;20464;-71
2022/08/16 03:47:08;;;;;;;37.83;28.75;;;19.70;99.90;;;;;;3058438;19;20010;-71
2022/08/16 03:48:13;;;;;;;39.13;27.63;;;19.70;99.90;;;;;;3058283;19;20038;-71
2022/08/16 03:49:18;;;;;;;36.60;28.55;;;19.80;99.90;;;;;;3057605;19;20011;-71
2022/08/16 03:50:20;;;;;;;38.85;27.77;;;19.70;99.90;;;;;;3057982;19;20010;-71
2022/08/16 03:51:24;;;;;;;37.47;27.65;;;19.70;99.90;;;;;;3058195;19;20019;-71
2022/08/16 03:52:25;;;;;;;37.00;27.58;;;19.80;99.90;;;;;;3057848;19;20047;-71
2022/08/16 03:53:29;;;;;;;36.50;27.02;;;19.80;99.90;;;;;;3058386;19;20019;-71
2022/08/16 03:54:30;;;;;;;36.70;26.50;;;19.80;99.90;;;;;;3057921;19;20431;-71
2022/08/16 03:55:34;;;;;;;37.92;29.05;;;19.90;99.90;;;;;;3058185;19;20031;-71
2022/08/16 03:56:35;;;;;;;42.80;30.38;;;19.80;99.90;;;;;;3058114;19;20360;-71
2022/08/16 03:57:39;;;;;;;37.47;27.85;;;19.90;99.90;;;;;;3058171;19;20031;-71
2022/08/16 03:58:41;;;;;;;38.85;28.65;;;20.00;99.90;;;;;;3057894;19;20010;-71
2022/08/16 03:59:44;;;;;;;38.55;27.65;;;20.00;99.90;;;;;;3058140;19;20448;-71
2022/08/16 04:00:48;;;;;;;38.63;27.70;;;19.70;99.90;;;;;;3057988;19;20022;-71
2022/08/16 04:01:54;;;;;;;36.03;28.80;;;19.70;99.90;;;;;;3057979;19;20007;-71
2022/08/16 04:02:57;;;;;;;38.13;27.75;;;19.90;99.90;;;;;;3057771;19;20039;-71
2022/08/16 04:04:02;;;;;;;35.45;27.45;;;19.90;99.90;;;;;;3058205;19;20476;-71
2022/08/16 04:05:05;;;;;;;41.00;28.70;;;19.90;99.90;;;;;;3057915;19;20014;-71
2022/08/16 04:06:09;;;;;;;38.20;29.38;;;19.80;99.90;;;;;;3060903;19;20029;-71
2022/08/16 04:07:10;;;;;;;40.38;27.88;;;19.70;99.90;;;;;;3061013;19;20031;-71
2022/08/16 04:08:14;;;;;;;38.72;28.38;;;19.90;99.90;;;;;;3061374;19;20003;-71
2022/08/16 04:09:16;;;;;;;39.30;26.42;;;19.90;99.90;;;;;;3060863;19;20026;-71
2022/08/16 04:10:20;;;;;;;;;;;19.90;99.90;;;;;;3061846;19;20030;-71
2022/08/16 04:11:21;;;;;;;36.88;28.77;;;19.80;99.90;;;;;;3060912;19;19925;-71
2022/08/16 04:12:25;;;;;;;38.03;27.20;;;19.60;99.90;;;;;;3060288;19;20014;-71
2022/08/16 04:13:27;;;;;;;38.95;27.80;;;19.60;99.90;;;;;;3059047;19;20019;-71
2022/08/16 04:14:31;;;;;;;37.47;28.13;;;19.70;99.90;;;;;;3061243;19;20006;-71
2022/08/16 04:15:32;;;;;;;39.55;27.95;;;19.80;99.90;;;;;;3060835;19;20035;-71
2022/08/16 04:16:36;;;;;;;37.80;29.08;;;19.80;99.90;;;;;;3060865;19;20006;-71
2022/08/16 04:17:40;;;;;;;38.25;28.67;;;19.60;99.90;;;;;;3060816;19;20371;-71
2022/08/16 04:18:44;;;;;;;37.75;28.48;;;19.70;99.90;;;;;;3060549;19;20438;-71
2022/08/16 04:19:46;;;;;;;39.40;28.02;;;19.80;99.90;;;;;;3060719;19;20018;-71
2022/08/16 04:20:50;;;;;;;40.80;29.63;;;19.70;99.90;;;;;;3060968;19;20427;-71
2022/08/16 04:21:51;;;;;;;39.38;28.20;;;19.70;99.90;;;;;;3060773;19;20035;-71
2022/08/16 04:22:55;;;;;;;34.92;27.70;;;19.80;99.90;;;;;;3060908;19;20014;-71
2022/08/16 04:23:56;;;;;;;34.60;27.02;;;20.00;99.90;;;;;;3060707;19;20022;-71
2022/08/16 04:25:00;;;;;;;36.08;27.73;;;19.60;99.90;;;;;;3060219;19;20003;-72
2022/08/16 04:26:02;;;;;;;36.45;27.38;;;19.80;99.90;;;;;;3060675;19;20600;-71
2022/08/16 04:27:07;;;;;;;37.13;27.60;;;19.60;99.90;;;;;;3060928;19;20002;-71
2022/08/16 04:28:09;;;;;;;39.63;28.20;;;19.70;99.90;;;;;;3060829;19;20006;-71
2022/08/16 04:29:13;;;;;;;37.28;28.30;;;19.70;99.90;;;;;;3060880;19;20010;-71
2022/08/16 04:30:17;;;;;;;37.75;27.88;;;19.80;99.90;;;;;;3060663;19;20358;-71
2022/08/16 04:31:20;;;;;;;36.70;27.80;;;19.80;99.90;;;;;;3061207;19;20006;-71
2022/08/16 04:32:22;;;;;;;40.42;28.40;;;19.70;99.90;;;;;;3060826;19;20006;-71
2022/08/16 04:33:28;;;;;;;41.45;29.67;;;19.80;99.90;;;;;;3060705;19;20028;-71
2022/08/16 04:34:33;;;;;;;40.22;27.70;;;19.70;99.90;;;;;;3059657;19;20509;-71
2022/08/16 04:35:37;;;;;;;38.33;28.63;;;19.60;99.90;;;;;;3059816;19;20017;-71
2022/08/16 04:36:39;;;;;;;37.53;28.00;;;19.70;99.90;;;;;;3060821;19;20022;-71
2022/08/16 04:37:43;;;;;;;36.15;28.05;;;19.60;99.90;;;;;;3060856;19;20003;-71
2022/08/16 04:38:44;;;;;;;36.63;27.40;;;19.80;99.90;;;;;;3060615;19;20014;-71
2022/08/16 04:39:48;;;;;;;38.30;28.35;;;19.80;99.90;;;;;;3060876;19;20017;-71
2022/08/16 04:40:49;;;;;;;34.78;27.40;;;20.00;99.90;;;;;;3060523;19;20021;-71
2022/08/16 04:41:53;;;;;;;37.50;28.17;;;19.60;99.90;;;;;;3061160;19;20367;-71
2022/08/16 04:42:55;;;;;;;37.83;28.48;;;19.80;99.90;;;;;;3060709;19;20021;-71
2022/08/16 04:43:59;;;;;;;39.05;28.20;;;20.00;99.90;;;;;;3060637;19;20078;-71
2022/08/16 04:45:00;;;;;;;39.35;29.42;;;19.90;99.90;;;;;;3060579;19;20374;-71
2022/08/16 04:46:04;;;;;;;;;;;19.90;99.90;;;;;;3061062;19;20633;-71
2022/08/16 04:47:05;;;;;;;39.33;28.60;;;19.70;99.90;;;;;;3060547;19;19919;-71
2022/08/16 04:48:10;;;;;;;37.00;28.13;;;19.80;99.90;;;;;;3060515;19;20010;-71
2022/08/16 04:49:14;;;;;;;38.90;28.40;;;19.80;99.90;;;;;;3059977;19;20015;-70
2022/08/16 04:50:21;;;;;;;40.63;29.23;;;19.70;99.90;;;;;;3059308;19;20088;-71
2022/08/16 04:51:22;;;;;;;37.97;27.90;;;19.70;99.90;;;;;;3060410;19;20360;-71
2022/08/16 04:52:26;;;;;;;35.85;28.13;;;19.90;99.90;;;;;;3060287;19;20011;-71
2022/08/16 04:53:30;;;;;;;39.30;28.13;;;19.70;99.90;;;;;;3060536;19;20018;-71
2022/08/16 04:54:31;;;;;;;39.72;28.40;;;19.80;99.90;;;;;;3060423;19;20015;-71
2022/08/16 04:55:36;;;;;;;39.60;28.02;;;19.60;99.90;;;;;;3060556;19;20440;-71
2022/08/16 04:56:37;;;;;;;38.17;27.90;;;19.70;99.90;;;;;;3060295;19;20010;-71
2022/08/16 04:57:41;;;;;;;;;;;19.90;99.90;;;;;;3061331;19;19999;-71
2022/08/16 04:58:43;;;;;;;40.05;27.42;;;19.80;99.90;;;;;;3060537;19;19919;-71
2022/08/16 04:59:47;;;;;;;39.95;28.98;;;19.60;99.90;;;;;;3060408;19;20017;-71
2022/08/16 05:00:48;;;;;;;37.30;27.83;;;20.00;99.90;;;;;;3060083;19;20017;-71
2022/08/16 05:01:55;;;;;;;39.65;29.23;;;19.80;99.90;;;;;;3060531;19;20074;-71
2022/08/16 05:02:57;;;;;;;35.92;27.63;;;19.70;99.90;;;;;;3060189;19;20006;-71
2022/08/16 05:04:00;;;;;;;35.45;27.52;;;19.90;99.90;;;;;;3060567;19;20019;-71
2022/08/16 05:05:06;;;;;;;39.70;27.77;;;19.80;99.90;;;;;;3060412;19;20010;-71
2022/08/16 05:06:12;;;;;;;38.30;28.30;;;19.60;99.90;;;;;;3060115;19;20010;-71
2022/08/16 05:07:15;;;;;;;38.55;28.55;;;19.90;99.90;;;;;;3059999;19;20010;-71
2022/08/16 05:08:19;;;;;;;38.90;28.65;;;19.70;99.90;;;;;;3060459;19;20014;-71
2022/08/16 05:09:22;;;;;;;39.03;29.13;;;19.70;99.90;;;;;;3060311;19;20499;-70
2022/08/16 05:10:25;;;;;;;39.67;28.23;;;19.80;99.90;;;;;;3059020;19;20014;-71
2022/08/16 05:11:29;;;;;;;39.00;27.27;;;19.70;99.90;;;;;;3060267;19;20022;-71
2022/08/16 05:12:33;;;;;;;39.17;28.88;;;19.90;99.90;;;;;;3060362;19;20013;-71
2022/08/16 05:13:36;;;;;;;40.05;28.73;;;19.80;99.90;;;;;;3058820;19;20035;-71
2022/08/16 05:14:40;;;;;;;37.15;28.10;;;19.80;99.90;;;;;;3060213;19;20036;-71
2022/08/16 05:15:44;;;;;;;37.08;27.58;;;19.80;99.90;;;;;;3060028;19;20014;-71
2022/08/16 05:16:48;;;;;;;36.75;27.75;;;19.70;99.90;;;;;;3058778;19;20018;-71
2022/08/16 05:17:49;;;;;;;38.90;27.45;;;19.70;99.90;;;;;;3059047;19;20066;-71
2022/08/16 05:18:54;;;;;;;37.50;28.17;;;19.70;99.90;;;;;;3060007;19;20066;-71
2022/08/16 05:19:56;;;;;;;35.05;27.73;;;19.70;99.90;;;;;;3059874;19;20014;-71
2022/08/16 05:21:02;;;;;;;39.63;27.67;;;19.80;99.90;;;;;;3059224;19;20092;-71
2022/08/16 05:22:04;;;;;;;37.25;27.23;;;20.00;99.90;;;;;;3059307;19;20006;-71
2022/08/16 05:23:08;;;;;;;36.33;27.25;;;19.90;99.90;;;;;;3060244;19;20007;-71
2022/08/16 05:24:09;;;;;;;34.53;27.63;;;19.70;99.90;;;;;;3059943;19;20020;-71
2022/08/16 05:25:14;;;;;;;34.78;27.23;;;19.80;99.90;;;;;;3059225;19;20011;-71
2022/08/16 05:26:15;;;;;;;38.63;27.20;;;19.80;99.90;;;;;;3059920;19;20025;-71
2022/08/16 05:27:19;;;;;;;33.03;26.13;;;19.70;99.90;;;;;;3060069;19;20464;-71
2022/08/16 05:28:23;;;;;;;37.33;26.77;;;19.80;99.90;;;;;;3059737;19;20007;-71
2022/08/16 05:29:25;;;;;;;34.08;26.67;;;19.80;99.90;;;;;;3060203;19;20458;-71
2022/08/16 05:30:29;;;;;;;36.03;27.25;;;19.90;99.90;;;;;;3059054;19;20007;-71